createdAt,value
2019-01-26T00:00:13.837Z,953.38
2019-01-26T00:02:07.488Z,953.33
2019-01-26T00:03:07.396Z,953.39
2019-01-26T00:05:00.795Z,953.21
2019-01-26T00:06:00.763Z,953.32
2019-01-26T00:07:54.056Z,953.27
2019-01-26T00:08:53.828Z,953.21
2019-01-26T00:10:47.443Z,953.24
2019-01-26T00:11:47.384Z,953.13
2019-01-26T00:13:40.746Z,953.18
2019-01-26T00:14:40.483Z,952.93
2019-01-26T00:16:33.599Z,952.96
2019-01-26T00:17:33.324Z,953.09
2019-01-26T00:19:27.008Z,953.26
2019-01-26T00:20:26.887Z,953.12
2019-01-26T00:22:20.302Z,953.04
2019-01-26T00:23:20.235Z,953.11
2019-01-26T00:25:13.637Z,952.90
2019-01-26T00:26:13.536Z,952.88
2019-01-26T00:28:06.966Z,952.87
2019-01-26T00:29:06.726Z,953.02
2019-01-26T00:31:00.363Z,952.93
2019-01-26T00:32:00.335Z,952.88
2019-01-26T00:33:53.730Z,953.05
2019-01-26T00:34:53.438Z,952.98
2019-01-26T00:36:47.106Z,952.94
2019-01-26T00:37:46.838Z,952.56
2019-01-26T00:39:40.425Z,952.72
2019-01-26T00:40:40.134Z,952.88
2019-01-26T00:42:33.320Z,952.80
2019-01-26T00:43:33.194Z,952.65
2019-01-26T00:45:26.581Z,952.81
2019-01-26T00:46:28.498Z,952.88
2019-01-26T00:48:19.411Z,952.82
2019-01-26T00:49:19.181Z,952.86
2019-01-26T00:51:17.118Z,952.94
2019-01-26T00:52:12.756Z,952.99
2019-01-26T00:54:06.190Z,953.08
2019-01-26T00:55:06.191Z,952.93
2019-01-26T00:56:59.036Z,953.07
2019-01-26T00:57:58.951Z,953.01
2019-01-26T00:59:52.374Z,953.03
2019-01-26T01:00:52.347Z,953.03
2019-01-26T01:02:45.702Z,952.96
2019-01-26T01:03:45.467Z,953.03
2019-01-26T01:05:39.542Z,952.86
2019-01-26T01:06:39.283Z,952.81
2019-01-26T01:08:32.383Z,952.76
2019-01-26T01:09:32.130Z,952.80
2019-01-26T01:11:25.667Z,952.55
2019-01-26T01:12:25.466Z,952.54
2019-01-26T01:14:18.977Z,952.66
2019-01-26T01:15:18.807Z,952.64
2019-01-26T01:17:12.415Z,952.42
2019-01-26T01:18:12.115Z,952.29
2019-01-26T01:20:05.708Z,952.28
2019-01-26T01:21:05.655Z,952.31
2019-01-26T01:22:58.605Z,952.26
2019-01-26T01:23:58.511Z,952.22
2019-01-26T01:25:51.411Z,952.40
2019-01-26T01:26:51.139Z,952.31
2019-01-26T01:28:44.289Z,952.33
2019-01-26T01:29:44.194Z,952.24
2019-01-26T01:31:37.580Z,952.40
2019-01-26T01:32:37.546Z,952.49
2019-01-26T01:34:30.442Z,952.45
2019-01-26T01:35:30.337Z,952.45
2019-01-26T01:37:23.802Z,952.64
2019-01-26T01:38:23.531Z,952.64
2019-01-26T01:40:17.141Z,952.59
2019-01-26T01:41:16.863Z,952.65
2019-01-26T01:43:09.950Z,952.20
2019-01-26T01:44:09.697Z,952.28
2019-01-26T01:46:03.316Z,952.41
2019-01-26T01:47:03.036Z,952.29
2019-01-26T01:48:56.670Z,952.36
2019-01-26T01:49:56.586Z,952.27
2019-01-26T01:50:56.337Z,952.35
2019-01-26T01:51:56.332Z,952.51
2019-01-26T01:52:56.326Z,952.52
2019-01-26T01:53:56.307Z,952.47
2019-01-26T01:54:56.299Z,952.45
2019-01-26T01:55:56.280Z,952.43
2019-01-26T01:56:56.285Z,952.44
2019-01-26T01:57:56.268Z,952.39
2019-01-26T01:58:56.262Z,952.36
2019-01-26T01:59:56.244Z,952.38
2019-01-26T02:00:56.231Z,952.48
2019-01-26T02:01:56.219Z,952.44
2019-01-26T02:02:56.202Z,952.43
2019-01-26T02:03:56.214Z,952.48
2019-01-26T02:04:56.200Z,952.53
2019-01-26T02:05:56.170Z,952.47
2019-01-26T02:06:56.166Z,952.54
2019-01-26T02:08:03.548Z,952.36
2019-01-26T02:09:49.761Z,952.26
2019-01-26T02:10:49.727Z,952.29
2019-01-26T02:12:42.648Z,952.15
2019-01-26T02:13:42.365Z,952.19
2019-01-26T02:15:35.958Z,952.11
2019-01-26T02:16:35.890Z,952.31
2019-01-26T02:18:28.751Z,952.30
2019-01-26T02:19:28.497Z,952.13
2019-01-26T02:21:22.134Z,952.11
2019-01-26T02:22:22.081Z,952.22
2019-01-26T02:24:15.434Z,952.18
2019-01-26T02:25:15.397Z,952.15
2019-01-26T02:27:08.827Z,951.95
2019-01-26T02:28:08.770Z,952.02
2019-01-26T02:30:02.143Z,952.00
2019-01-26T02:31:01.867Z,951.83
2019-01-26T02:32:54.994Z,952.01
2019-01-26T02:33:54.918Z,952.11
2019-01-26T02:34:54.706Z,952.10
2019-01-26T02:35:54.685Z,952.12
2019-01-26T02:36:54.678Z,952.15
2019-01-26T02:37:54.683Z,951.92
2019-01-26T02:38:54.895Z,951.70
2019-01-26T02:39:54.902Z,951.67
2019-01-26T02:40:54.623Z,951.74
2019-01-26T02:41:54.620Z,951.79
2019-01-26T02:42:54.599Z,951.87
2019-01-26T02:43:54.589Z,951.88
2019-01-26T02:44:54.578Z,951.99
2019-01-26T02:45:54.567Z,952.06
2019-01-26T02:46:58.046Z,951.85
2019-01-26T02:47:54.544Z,951.82
2019-01-26T02:48:54.535Z,951.92
2019-01-26T02:49:54.524Z,951.97
2019-01-26T02:50:54.514Z,951.93
2019-01-26T02:51:54.503Z,951.81
2019-01-26T02:52:54.492Z,951.96
2019-01-26T02:53:54.481Z,951.94
2019-01-26T02:54:54.474Z,951.91
2019-01-26T02:55:54.460Z,952.10
2019-01-26T02:56:54.451Z,951.83
2019-01-26T02:57:54.440Z,951.73
2019-01-26T02:58:54.466Z,951.75
2019-01-26T02:59:54.416Z,951.74
2019-01-26T03:00:54.405Z,951.57
2019-01-26T03:01:54.395Z,951.78
2019-01-26T03:02:54.387Z,951.61
2019-01-26T03:03:54.371Z,951.74
2019-01-26T03:04:54.365Z,951.91
2019-01-26T03:05:54.350Z,951.96
2019-01-26T03:06:54.341Z,951.78
2019-01-26T03:07:54.330Z,951.91
2019-01-26T03:08:54.322Z,951.96
2019-01-26T03:09:54.308Z,952.12
2019-01-26T03:10:54.304Z,951.99
2019-01-26T03:11:54.284Z,952.03
2019-01-26T03:12:54.280Z,951.99
2019-01-26T03:13:54.267Z,952.00
2019-01-26T03:14:54.257Z,952.01
2019-01-26T03:15:54.246Z,952.02
2019-01-26T03:16:54.234Z,951.95
2019-01-26T03:17:54.224Z,952.01
2019-01-26T03:18:54.212Z,952.02
2019-01-26T03:19:54.205Z,952.04
2019-01-26T03:20:54.192Z,952.03
2019-01-26T03:21:54.185Z,952.11
2019-01-26T03:22:54.197Z,952.02
2019-01-26T03:23:54.162Z,952.11
2019-01-26T03:25:47.823Z,952.00
2019-01-26T03:26:47.749Z,952.10
2019-01-26T03:28:40.652Z,952.25
2019-01-26T03:29:40.568Z,952.27
2019-01-26T03:31:34.027Z,951.91
2019-01-26T03:32:33.779Z,952.12
2019-01-26T03:34:26.887Z,952.25
2019-01-26T03:35:26.622Z,952.22
2019-01-26T03:37:19.711Z,952.09
2019-01-26T03:38:19.430Z,952.05
2019-01-26T03:40:13.127Z,952.00
2019-01-26T03:41:12.808Z,952.15
2019-01-26T03:43:06.511Z,952.18
2019-01-26T03:44:06.427Z,952.18
2019-01-26T03:45:59.841Z,952.09
2019-01-26T03:46:59.559Z,952.08
2019-01-26T03:48:53.223Z,951.84
2019-01-26T03:49:53.752Z,952.20
2019-01-26T03:51:46.516Z,952.10
2019-01-26T03:52:46.312Z,952.05
2019-01-26T03:54:39.444Z,952.07
2019-01-26T03:55:39.346Z,951.85
2019-01-26T03:57:32.809Z,951.97
2019-01-26T03:58:32.750Z,952.06
2019-01-26T04:00:25.690Z,952.09
2019-01-26T04:01:25.585Z,951.88
2019-01-26T04:03:18.539Z,952.07
2019-01-26T04:04:18.207Z,951.98
2019-01-26T04:06:11.826Z,952.10
2019-01-26T04:07:11.763Z,951.88
2019-01-26T04:09:05.193Z,952.05
2019-01-26T04:10:05.140Z,952.04
2019-01-26T04:11:58.130Z,952.04
2019-01-26T04:12:57.787Z,951.87
2019-01-26T04:14:50.924Z,951.87
2019-01-26T04:15:50.816Z,951.73
2019-01-26T04:17:44.271Z,951.99
2019-01-26T04:18:43.968Z,952.05
2019-01-26T04:20:37.076Z,951.83
2019-01-26T04:21:37.046Z,952.00
2019-01-26T04:23:30.437Z,952.06
2019-01-26T04:24:30.359Z,951.97
2019-01-26T04:26:23.228Z,951.93
2019-01-26T04:27:23.231Z,952.02
2019-01-26T04:29:16.683Z,951.97
2019-01-26T04:30:16.373Z,951.88
2019-01-26T04:32:10.024Z,951.90
2019-01-26T04:33:09.962Z,951.92
2019-01-26T04:35:03.409Z,952.05
2019-01-26T04:36:03.319Z,951.97
2019-01-26T04:37:56.764Z,952.06
2019-01-26T04:38:56.693Z,951.92
2019-01-26T04:40:49.584Z,951.97
2019-01-26T04:41:49.328Z,951.80
2019-01-26T04:43:42.999Z,951.90
2019-01-26T04:44:42.951Z,952.02
2019-01-26T04:46:35.843Z,951.90
2019-01-26T04:47:35.775Z,951.88
2019-01-26T04:49:29.211Z,951.89
2019-01-26T04:50:29.151Z,951.96
2019-01-26T04:52:22.029Z,951.80
2019-01-26T04:53:21.942Z,951.82
2019-01-26T04:55:15.359Z,951.67
2019-01-26T04:56:15.105Z,951.67
2019-01-26T04:58:08.240Z,951.88
2019-01-26T04:59:08.156Z,951.87
2019-01-26T05:01:01.035Z,951.85
2019-01-26T05:02:00.982Z,951.79
2019-01-26T05:03:54.429Z,951.88
2019-01-26T05:04:54.364Z,951.80
2019-01-26T05:06:47.240Z,951.88
2019-01-26T05:07:46.997Z,951.96
2019-01-26T05:09:40.660Z,951.89
2019-01-26T05:10:40.573Z,951.90
2019-01-26T05:12:33.518Z,951.92
2019-01-26T05:13:33.424Z,951.97
2019-01-26T05:15:26.939Z,951.96
2019-01-26T05:16:26.829Z,951.96
2019-01-26T05:18:19.751Z,951.77
2019-01-26T05:19:19.486Z,951.90
2019-01-26T05:21:13.116Z,951.85
2019-01-26T05:22:13.070Z,951.88
2019-01-26T05:24:06.466Z,951.87
2019-01-26T05:25:06.246Z,951.96
2019-01-26T05:26:59.861Z,951.98
2019-01-26T05:27:59.782Z,951.92
2019-01-26T05:29:53.200Z,952.01
2019-01-26T05:30:53.184Z,951.91
2019-01-26T05:32:46.373Z,952.00
2019-01-26T05:33:45.778Z,951.97
2019-01-26T05:35:39.416Z,951.94
2019-01-26T05:36:39.133Z,952.01
2019-01-26T05:38:32.265Z,952.07
2019-01-26T05:39:31.981Z,952.04
2019-01-26T05:41:25.624Z,951.92
2019-01-26T05:42:25.341Z,951.95
2019-01-26T05:44:18.479Z,952.04
2019-01-26T05:45:18.391Z,951.98
2019-01-26T05:47:11.860Z,951.92
2019-01-26T05:48:11.752Z,951.94
2019-01-26T05:50:05.366Z,951.92
2019-01-26T05:51:05.170Z,951.88
2019-01-26T05:52:58.027Z,951.90
2019-01-26T05:53:57.764Z,951.92
2019-01-26T05:55:51.424Z,951.93
2019-01-26T05:56:51.363Z,951.98
2019-01-26T05:58:44.229Z,951.97
2019-01-26T05:59:43.981Z,951.97
2019-01-26T06:01:37.591Z,952.00
2019-01-26T06:02:37.384Z,951.98
2019-01-26T06:04:30.432Z,951.91
2019-01-26T06:05:30.177Z,951.97
2019-01-26T06:07:23.816Z,951.93
2019-01-26T06:08:23.510Z,951.93
2019-01-26T06:10:16.648Z,951.93
2019-01-26T06:11:16.609Z,951.98
2019-01-26T06:13:10.006Z,951.87
2019-01-26T06:14:09.926Z,951.87
2019-01-26T06:15:09.699Z,951.94
2019-01-26T06:16:09.691Z,951.91
2019-01-26T06:17:09.917Z,952.01
2019-01-26T06:18:09.908Z,951.99
2019-01-26T06:19:09.876Z,951.98
2019-01-26T06:20:09.896Z,952.03
2019-01-26T06:21:09.624Z,952.02
2019-01-26T06:22:09.618Z,952.00
2019-01-26T06:23:09.614Z,951.93
2019-01-26T06:24:09.598Z,951.88
2019-01-26T06:25:09.598Z,951.88
2019-01-26T06:26:09.581Z,951.87
2019-01-26T06:27:09.571Z,951.87
2019-01-26T06:28:09.564Z,951.97
2019-01-26T06:29:09.552Z,951.96
2019-01-26T06:30:09.543Z,951.94
2019-01-26T06:31:09.533Z,951.90
2019-01-26T06:32:09.522Z,952.01
2019-01-26T06:33:09.522Z,952.03
2019-01-26T06:34:09.506Z,951.95
2019-01-26T06:35:09.498Z,951.92
2019-01-26T06:36:09.488Z,951.90
2019-01-26T06:37:09.481Z,951.96
2019-01-26T06:38:09.469Z,951.84
2019-01-26T06:39:09.472Z,951.95
2019-01-26T06:40:09.452Z,951.94
2019-01-26T06:41:09.442Z,951.89
2019-01-26T06:42:09.430Z,951.97
2019-01-26T06:43:09.422Z,951.97
2019-01-26T06:44:09.417Z,951.96
2019-01-26T06:45:09.404Z,951.95
2019-01-26T06:46:09.395Z,951.97
2019-01-26T06:47:09.384Z,952.01
2019-01-26T06:48:09.382Z,951.97
2019-01-26T06:49:09.369Z,952.01
2019-01-26T06:50:09.358Z,951.99
2019-01-26T06:51:09.348Z,952.01
2019-01-26T06:52:09.341Z,951.95
2019-01-26T06:53:09.333Z,952.01
2019-01-26T06:54:09.321Z,952.05
2019-01-26T06:55:09.310Z,952.03
2019-01-26T06:56:09.305Z,952.05
2019-01-26T06:57:09.293Z,952.02
2019-01-26T06:58:09.283Z,952.00
2019-01-26T06:59:09.283Z,952.01
2019-01-26T07:00:09.264Z,952.08
2019-01-26T07:01:09.271Z,951.99
2019-01-26T07:02:09.251Z,951.95
2019-01-26T07:03:09.241Z,951.94
2019-01-26T07:04:09.231Z,951.96
2019-01-26T07:05:09.224Z,951.95
2019-01-26T07:06:09.217Z,952.01
2019-01-26T07:07:09.202Z,951.99
2019-01-26T07:08:09.238Z,951.83
2019-01-26T07:09:09.186Z,951.88
2019-01-26T07:10:09.174Z,951.91
2019-01-26T07:11:09.168Z,951.95
2019-01-26T07:12:09.156Z,951.87
2019-01-26T07:13:09.149Z,951.78
2019-01-26T07:14:09.138Z,951.81
2019-01-26T07:15:09.130Z,951.69
2019-01-26T07:16:09.158Z,951.82
2019-01-26T07:17:09.147Z,951.82
2019-01-26T07:18:09.772Z,951.80
2019-01-26T07:19:09.163Z,951.82
2019-01-26T07:20:09.095Z,951.85
2019-01-26T07:21:09.081Z,951.94
2019-01-26T07:22:09.070Z,951.96
2019-01-26T07:23:09.062Z,952.02
2019-01-26T07:24:09.066Z,951.73
2019-01-26T07:25:09.044Z,951.90
2019-01-26T07:26:09.036Z,951.81
2019-01-26T07:27:09.057Z,951.86
2019-01-26T07:28:09.058Z,951.86
2019-01-26T07:29:09.008Z,951.86
2019-01-26T07:30:09.018Z,951.73
2019-01-26T07:31:08.987Z,951.75
2019-01-26T07:32:08.988Z,951.73
2019-01-26T07:33:08.970Z,951.76
2019-01-26T07:34:08.960Z,951.76
2019-01-26T07:35:08.952Z,951.89
2019-01-26T07:36:08.952Z,951.87
2019-01-26T07:37:08.933Z,951.94
2019-01-26T07:38:13.473Z,951.80
2019-01-26T07:39:08.924Z,951.80
2019-01-26T07:40:08.908Z,951.79
2019-01-26T07:41:08.898Z,951.77
2019-01-26T07:42:08.936Z,951.85
2019-01-26T07:43:10.266Z,951.83
2019-01-26T07:44:08.872Z,951.84
2019-01-26T07:45:08.862Z,951.81
2019-01-26T07:46:08.864Z,951.71
2019-01-26T07:47:08.860Z,951.83
2019-01-26T07:48:08.837Z,951.74
2019-01-26T07:49:09.476Z,951.72
2019-01-26T07:50:08.820Z,951.70
2019-01-26T07:51:08.813Z,951.75
2019-01-26T07:52:08.800Z,951.65
2019-01-26T07:53:08.792Z,951.63
2019-01-26T07:54:08.793Z,951.71
2019-01-26T07:55:08.788Z,951.70
2019-01-26T07:56:08.777Z,951.74
2019-01-26T07:57:08.767Z,951.71
2019-01-26T07:58:08.750Z,951.65
2019-01-26T07:59:08.748Z,951.67
2019-01-26T08:00:08.732Z,951.61
2019-01-26T08:01:08.724Z,951.65
2019-01-26T08:02:08.717Z,951.74
2019-01-26T08:03:08.730Z,951.71
2019-01-26T08:04:08.697Z,951.62
2019-01-26T08:05:08.687Z,951.61
2019-01-26T08:06:08.682Z,951.78
2019-01-26T08:07:08.673Z,951.68
2019-01-26T08:08:08.664Z,951.71
2019-01-26T08:09:08.677Z,951.72
2019-01-26T08:10:08.648Z,951.61
2019-01-26T08:11:08.638Z,951.70
2019-01-26T08:12:08.631Z,951.66
2019-01-26T08:13:08.631Z,951.71
2019-01-26T08:14:08.627Z,951.62
2019-01-26T08:15:08.635Z,951.68
2019-01-26T08:16:17.138Z,951.66
2019-01-26T08:18:02.308Z,951.58
2019-01-26T08:19:02.789Z,951.62
2019-01-26T08:20:55.793Z,951.61
2019-01-26T08:21:55.214Z,951.62
2019-01-26T08:23:48.483Z,951.47
2019-01-26T08:24:48.334Z,951.42
2019-01-26T08:26:41.300Z,951.47
2019-01-26T08:27:41.040Z,951.45
2019-01-26T08:29:35.448Z,951.52
2019-01-26T08:30:34.221Z,951.37
2019-01-26T08:32:28.663Z,951.33
2019-01-26T08:33:34.852Z,951.30
2019-01-26T08:35:19.973Z,951.36
2019-01-26T08:36:19.612Z,951.31
2019-01-26T08:38:12.732Z,951.21
2019-01-26T08:39:12.736Z,951.36
2019-01-26T08:41:06.140Z,951.42
2019-01-26T08:42:06.131Z,951.40
2019-01-26T08:43:59.474Z,951.43
2019-01-26T08:44:59.463Z,951.46
2019-01-26T08:46:52.888Z,951.42
2019-01-26T08:47:52.598Z,951.26
2019-01-26T08:49:46.277Z,951.49
2019-01-26T08:50:45.961Z,951.38
2019-01-26T08:52:39.095Z,951.48
2019-01-26T08:53:38.801Z,951.43
2019-01-26T08:55:32.028Z,951.37
2019-01-26T08:56:31.823Z,951.42
2019-01-26T08:58:24.762Z,951.40
2019-01-26T08:59:24.649Z,951.41
2019-01-26T09:01:17.583Z,951.44
2019-01-26T09:02:17.548Z,951.41
2019-01-26T09:04:10.523Z,951.41
2019-01-26T09:05:10.469Z,951.36
2019-01-26T09:07:04.095Z,951.28
2019-01-26T09:08:03.600Z,951.48
2019-01-26T09:09:57.271Z,951.31
2019-01-26T09:10:57.242Z,951.48
2019-01-26T09:12:50.163Z,951.44
2019-01-26T09:13:50.128Z,951.34
2019-01-26T09:15:42.987Z,951.40
2019-01-26T09:16:42.937Z,951.33
2019-01-26T09:18:38.832Z,951.37
2019-01-26T09:19:38.246Z,951.39
2019-01-26T09:21:29.138Z,951.28
2019-01-26T09:22:28.894Z,951.33
2019-01-26T09:24:22.078Z,951.38
2019-01-26T09:25:22.629Z,951.33
2019-01-26T09:27:14.936Z,951.39
2019-01-26T09:28:14.719Z,951.37
2019-01-26T09:30:07.793Z,951.23
2019-01-26T09:31:08.398Z,951.29
2019-01-26T09:33:01.308Z,951.35
2019-01-26T09:34:01.738Z,951.27
2019-01-26T09:35:54.019Z,951.22
2019-01-26T09:36:53.732Z,951.26
2019-01-26T09:38:47.472Z,951.17
2019-01-26T09:39:47.377Z,951.17
2019-01-26T09:40:47.321Z,951.29
2019-01-26T09:41:47.591Z,951.09
2019-01-26T09:42:47.741Z,951.22
2019-01-26T09:43:47.265Z,951.17
2019-01-26T09:44:47.050Z,951.16
2019-01-26T09:45:47.958Z,951.26
2019-01-26T09:46:47.288Z,951.24
2019-01-26T09:47:55.413Z,951.21
2019-01-26T09:49:40.772Z,951.30
2019-01-26T09:50:40.742Z,951.14
2019-01-26T09:52:34.128Z,951.22
2019-01-26T09:53:34.063Z,951.24
2019-01-26T09:55:26.995Z,951.24
2019-01-26T09:56:26.881Z,951.17
2019-01-26T09:58:20.062Z,951.32
2019-01-26T09:59:19.877Z,951.30
2019-01-26T10:01:12.799Z,951.36
2019-01-26T10:02:12.658Z,951.51
2019-01-26T10:04:05.852Z,951.49
2019-01-26T10:05:05.451Z,951.52
2019-01-26T10:06:58.953Z,951.51
2019-01-26T10:07:58.959Z,951.53
2019-01-26T10:09:52.379Z,951.48
2019-01-26T10:10:52.027Z,951.54
2019-01-26T10:12:45.747Z,951.46
2019-01-26T10:13:45.427Z,951.53
2019-01-26T10:15:38.689Z,951.52
2019-01-26T10:16:38.574Z,951.49
2019-01-26T10:18:32.549Z,951.43
2019-01-26T10:19:31.988Z,951.51
2019-01-26T10:21:24.867Z,951.49
2019-01-26T10:22:25.641Z,951.49
2019-01-26T10:24:18.728Z,951.37
2019-01-26T10:25:18.512Z,951.52
2019-01-26T10:27:11.607Z,951.41
2019-01-26T10:28:11.546Z,951.48
2019-01-26T10:30:04.349Z,951.54
2019-01-26T10:31:04.401Z,951.55
2019-01-26T10:32:57.810Z,951.55
2019-01-26T10:33:57.825Z,951.56
2019-01-26T10:35:51.289Z,951.57
2019-01-26T10:36:51.039Z,951.61
2019-01-26T10:38:44.682Z,951.59
2019-01-26T10:39:46.193Z,951.56
2019-01-26T10:41:38.199Z,951.60
2019-01-26T10:42:37.859Z,951.54
2019-01-26T10:43:37.897Z,951.53
2019-01-26T10:44:37.835Z,951.48
2019-01-26T10:45:37.851Z,951.65
2019-01-26T10:46:37.819Z,951.52
2019-01-26T10:47:37.815Z,951.51
2019-01-26T10:48:37.805Z,951.44
2019-01-26T10:49:37.816Z,951.46
2019-01-26T10:50:37.813Z,951.50
2019-01-26T10:51:37.780Z,951.50
2019-01-26T10:52:37.784Z,951.53
2019-01-26T10:53:37.784Z,951.46
2019-01-26T10:54:37.766Z,951.44
2019-01-26T10:55:37.758Z,951.44
2019-01-26T10:56:37.791Z,951.55
2019-01-26T10:57:37.773Z,951.47
2019-01-26T10:58:38.016Z,951.55
2019-01-26T10:59:38.028Z,951.51
2019-01-26T11:00:38.037Z,951.52
2019-01-26T11:01:38.439Z,951.53
2019-01-26T11:02:38.324Z,951.47
2019-01-26T11:03:38.043Z,951.43
2019-01-26T11:04:37.701Z,951.45
2019-01-26T11:05:37.684Z,951.45
2019-01-26T11:06:37.676Z,951.50
2019-01-26T11:07:37.679Z,951.36
2019-01-26T11:08:37.660Z,951.37
2019-01-26T11:09:37.657Z,951.33
2019-01-26T11:10:37.648Z,951.36
2019-01-26T11:11:37.638Z,951.36
2019-01-26T11:12:37.657Z,951.34
2019-01-26T11:13:37.626Z,951.32
2019-01-26T11:14:37.622Z,951.28
2019-01-26T11:15:37.615Z,951.34
2019-01-26T11:16:37.608Z,951.33
2019-01-26T11:17:37.602Z,951.30
2019-01-26T11:18:37.593Z,951.34
2019-01-26T11:19:37.587Z,951.31
2019-01-26T11:20:37.584Z,951.34
2019-01-26T11:21:37.575Z,951.29
2019-01-26T11:22:37.566Z,951.31
2019-01-26T11:23:37.561Z,951.33
2019-01-26T11:24:37.551Z,951.26
2019-01-26T11:25:37.654Z,951.36
2019-01-26T11:26:37.546Z,951.35
2019-01-26T11:27:44.979Z,951.34
2019-01-26T11:29:30.714Z,951.35
2019-01-26T11:30:30.407Z,951.36
2019-01-26T11:32:23.565Z,951.30
2019-01-26T11:33:23.251Z,951.33
2019-01-26T11:35:16.358Z,951.25
2019-01-26T11:36:16.121Z,951.30
2019-01-26T11:38:09.324Z,951.18
2019-01-26T11:39:09.198Z,951.24
2019-01-26T11:41:02.076Z,951.24
2019-01-26T11:42:02.049Z,951.23
2019-01-26T11:43:54.988Z,951.25
2019-01-26T11:44:54.888Z,951.23
2019-01-26T11:46:48.381Z,951.19
2019-01-26T11:47:48.104Z,951.16
2019-01-26T11:49:41.744Z,951.18
2019-01-26T11:50:40.938Z,951.16
2019-01-26T11:52:37.071Z,951.14
2019-01-26T11:53:34.674Z,951.15
2019-01-26T11:54:34.819Z,951.14
2019-01-26T11:55:41.768Z,951.10
2019-01-26T11:57:28.034Z,951.05
2019-01-26T11:58:27.851Z,951.04
2019-01-26T12:00:20.942Z,950.93
2019-01-26T12:01:20.808Z,951.02
2019-01-26T12:03:13.785Z,950.97
2019-01-26T12:04:13.713Z,950.92
2019-01-26T12:06:06.680Z,950.96
2019-01-26T12:07:06.331Z,950.86
2019-01-26T12:08:59.445Z,950.95
2019-01-26T12:09:59.429Z,950.92
2019-01-26T12:11:52.803Z,950.95
2019-01-26T12:12:52.535Z,951.00
2019-01-26T12:14:45.799Z,950.93
2019-01-26T12:15:45.683Z,950.94
2019-01-26T12:17:39.039Z,950.87
2019-01-26T12:18:38.979Z,950.88
2019-01-26T12:20:31.958Z,950.79
2019-01-26T12:21:31.581Z,950.91
2019-01-26T12:23:24.854Z,950.97
2019-01-26T12:24:26.195Z,950.80
2019-01-26T12:26:18.607Z,950.75
2019-01-26T12:27:18.243Z,950.78
2019-01-26T12:29:11.143Z,950.83
2019-01-26T12:30:11.259Z,950.91
2019-01-26T12:32:03.984Z,950.92
2019-01-26T12:33:04.116Z,950.88
2019-01-26T12:34:56.846Z,950.98
2019-01-26T12:35:57.125Z,950.97
2019-01-26T12:37:50.282Z,950.86
2019-01-26T12:38:50.175Z,950.86
2019-01-26T12:40:45.118Z,950.94
2019-01-26T12:41:45.308Z,950.92
2019-01-26T12:43:37.847Z,950.92
2019-01-26T12:44:37.560Z,950.89
2019-01-26T12:46:31.242Z,950.87
2019-01-26T12:47:30.941Z,950.88
2019-01-26T12:49:29.510Z,950.77
2019-01-26T12:50:24.023Z,950.88
2019-01-26T12:52:17.116Z,950.80
2019-01-26T12:53:16.846Z,950.88
2019-01-26T12:55:09.974Z,950.83
2019-01-26T12:56:10.000Z,950.86
2019-01-26T12:58:02.830Z,950.84
2019-01-26T12:59:02.818Z,950.78
2019-01-26T13:00:55.676Z,950.82
2019-01-26T13:01:56.629Z,950.85
2019-01-26T13:03:49.296Z,950.87
2019-01-26T13:04:48.777Z,950.91
2019-01-26T13:05:49.048Z,950.88
2019-01-26T13:06:49.004Z,950.80
2019-01-26T13:07:48.995Z,950.80
2019-01-26T13:08:48.990Z,950.78
2019-01-26T13:09:48.999Z,950.80
2019-01-26T13:10:48.978Z,950.81
2019-01-26T13:11:48.987Z,950.77
2019-01-26T13:12:48.737Z,950.77
2019-01-26T13:13:48.949Z,950.77
2019-01-26T13:14:49.252Z,950.79
2019-01-26T13:15:48.935Z,950.76
2019-01-26T13:16:48.961Z,950.76
2019-01-26T13:17:48.973Z,950.72
2019-01-26T13:18:48.971Z,950.76
2019-01-26T13:19:49.913Z,950.72
2019-01-26T13:20:48.980Z,950.68
2019-01-26T13:21:49.005Z,950.72
2019-01-26T13:22:48.995Z,950.71
2019-01-26T13:23:48.941Z,950.69
2019-01-26T13:24:48.857Z,950.72
2019-01-26T13:25:48.960Z,950.71
2019-01-26T13:26:49.650Z,950.71
2019-01-26T13:27:48.871Z,950.67
2019-01-26T13:28:48.898Z,950.64
2019-01-26T13:29:48.923Z,950.74
2019-01-26T13:30:48.880Z,950.67
2019-01-26T13:31:48.843Z,950.65
2019-01-26T13:32:48.863Z,950.63
2019-01-26T13:33:48.645Z,950.70
2019-01-26T13:34:48.857Z,950.60
2019-01-26T13:35:48.897Z,950.63
2019-01-26T13:36:48.791Z,950.59
2019-01-26T13:37:48.831Z,950.55
2019-01-26T13:38:48.781Z,950.65
2019-01-26T13:39:48.834Z,950.64
2019-01-26T13:40:48.773Z,950.64
2019-01-26T13:41:48.820Z,950.58
2019-01-26T13:42:48.836Z,950.62
2019-01-26T13:43:48.786Z,950.61
2019-01-26T13:44:48.737Z,950.57
2019-01-26T13:45:48.502Z,950.49
2019-01-26T13:46:48.592Z,950.65
2019-01-26T13:47:48.502Z,950.62
2019-01-26T13:48:48.542Z,950.59
2019-01-26T13:49:48.492Z,950.59
2019-01-26T13:50:48.804Z,950.66
2019-01-26T13:51:48.763Z,950.60
2019-01-26T13:52:48.805Z,950.59
2019-01-26T13:53:48.847Z,950.60
2019-01-26T13:54:49.565Z,950.65
2019-01-26T13:55:48.744Z,950.69
2019-01-26T13:56:48.696Z,950.73
2019-01-26T13:57:48.694Z,950.73
2019-01-26T13:58:48.662Z,950.69
2019-01-26T13:59:48.699Z,950.68
2019-01-26T14:00:48.712Z,950.61
2019-01-26T14:01:52.255Z,950.62
2019-01-26T14:02:51.932Z,950.58
2019-01-26T14:03:49.032Z,950.66
2019-01-26T14:04:48.633Z,950.55
2019-01-26T14:05:48.735Z,950.56
2019-01-26T14:06:49.640Z,950.57
2019-01-26T14:07:55.709Z,950.57
2019-01-26T14:08:48.859Z,950.58
2019-01-26T14:09:48.843Z,950.53
2019-01-26T14:10:49.362Z,950.60
2019-01-26T14:11:48.341Z,950.57
2019-01-26T14:12:48.349Z,950.58
2019-01-26T14:13:48.329Z,950.46
2019-01-26T14:14:48.319Z,950.51
2019-01-26T14:15:48.317Z,950.45
2019-01-26T14:16:48.313Z,950.46
2019-01-26T14:17:48.302Z,950.49
2019-01-26T14:18:48.299Z,950.48
2019-01-26T14:19:51.356Z,950.51
2019-01-26T14:20:48.288Z,950.57
2019-01-26T14:21:48.282Z,950.57
2019-01-26T14:22:48.279Z,950.55
2019-01-26T14:23:48.268Z,950.50
2019-01-26T14:24:48.260Z,950.58
2019-01-26T14:25:48.258Z,950.54
2019-01-26T14:26:49.859Z,950.54
2019-01-26T14:27:48.259Z,950.53
2019-01-26T14:28:48.234Z,950.54
2019-01-26T14:29:48.233Z,950.57
2019-01-26T14:30:48.223Z,950.56
2019-01-26T14:31:48.215Z,950.54
2019-01-26T14:32:52.465Z,950.45
2019-01-26T14:33:48.228Z,950.46
2019-01-26T14:34:48.226Z,950.49
2019-01-26T14:35:48.227Z,950.52
2019-01-26T14:36:48.198Z,950.45
2019-01-26T14:37:48.191Z,950.49
2019-01-26T14:38:48.175Z,950.49
2019-01-26T14:39:48.171Z,950.50
2019-01-26T14:40:48.169Z,950.38
2019-01-26T14:41:48.157Z,950.37
2019-01-26T14:42:54.217Z,950.42
2019-01-26T14:43:48.146Z,950.39
2019-01-26T14:44:48.183Z,950.46
2019-01-26T14:45:48.138Z,950.42
2019-01-26T14:46:48.144Z,950.45
2019-01-26T14:47:48.347Z,950.34
2019-01-26T14:48:48.112Z,950.29
2019-01-26T14:49:48.152Z,950.38
2019-01-26T14:50:48.102Z,950.38
2019-01-26T14:51:48.100Z,950.27
2019-01-26T14:52:48.088Z,950.33
2019-01-26T14:53:48.088Z,950.22
2019-01-26T14:54:48.087Z,950.30
2019-01-26T14:55:48.097Z,950.32
2019-01-26T14:56:55.592Z,950.30
2019-01-26T14:58:41.762Z,950.28
2019-01-26T14:59:41.669Z,950.28
2019-01-26T15:01:35.137Z,950.35
2019-01-26T15:02:35.002Z,950.28
2019-01-26T15:04:28.135Z,950.27
2019-01-26T15:05:27.894Z,950.30
2019-01-26T15:07:21.142Z,950.30
2019-01-26T15:08:20.810Z,950.23
2019-01-26T15:10:14.116Z,950.28
2019-01-26T15:11:13.974Z,950.29
2019-01-26T15:13:06.929Z,950.25
2019-01-26T15:14:06.801Z,950.25
2019-01-26T15:15:59.959Z,950.31
2019-01-26T15:16:59.607Z,950.34
2019-01-26T15:18:52.781Z,950.32
2019-01-26T15:19:52.755Z,950.27
2019-01-26T15:21:46.114Z,950.18